Metar z pełnej godziny Komunikat METAR ze strony awiacja.imgw.pl Metar G00 EPWR METAR EPWR 172100Z 13003KT CAVOK 10/09 Q1020 =